Time;durP1;ratioP1;P1;durP2;ratioP2;P2;SDS_P1;SDS_P2;PMS_P1;PMS_P2;Temp;Humidity;BMP_temperature;BMP_pressure;BME280_temperature;BME280_humidity;BME280_pressure;Samples;Min_cycle;Max_cycle;Signal;HPM_P1;HPM_P2
2020/12/13 00:01:57;;;;;;;12.75;11.85;;;2.00;83.20;;;;;;4984128;29;20130;-79
2020/12/13 00:04:32;;;;;;;13.13;12.18;;;2.00;83.10;;;;;;4988250;29;20056;-81
2020/12/13 00:07:05;;;;;;;12.57;11.68;;;2.10;83.00;;;;;;4982996;29;20635;-82
2020/12/13 00:09:36;;;;;;;13.07;12.07;;;2.10;82.60;;;;;;4989657;29;20077;-82
2020/12/13 00:12:08;;;;;;;12.75;11.85;;;2.10;82.80;;;;;;4990274;29;20038;-81
2020/12/13 00:14:39;;;;;;;12.70;11.80;;;2.10;83.20;;;;;;4996126;29;20043;-81
2020/12/13 00:17:11;;;;;;;13.07;12.18;;;2.10;83.30;;;;;;4993816;29;20082;-81
2020/12/13 00:19:42;;;;;;;12.82;11.93;;;2.10;83.60;;;;;;4978664;29;20129;-81
2020/12/13 00:22:14;;;;;;;12.40;11.60;;;2.00;83.60;;;;;;4993863;29;20549;-80
2020/12/13 00:24:45;;;;;;;12.90;12.00;;;2.10;83.80;;;;;;4993270;29;20054;-81
2020/12/13 00:27:16;;;;;;;12.85;11.95;;;2.10;83.60;;;;;;4995603;29;20046;-81
2020/12/13 00:29:48;;;;;;;12.88;11.98;;;2.10;83.70;;;;;;4994913;29;20070;-82
2020/12/13 00:32:19;;;;;;;13.35;12.35;;;2.10;83.50;;;;;;4994682;29;20038;-82
2020/12/13 00:34:51;;;;;;;12.73;11.82;;;2.10;83.60;;;;;;4995920;29;20126;-83
2020/12/13 00:37:24;;;;;;;12.77;11.88;;;2.10;84.00;;;;;;4991356;29;20151;-81
2020/12/13 00:39:56;;;;;;;12.93;12.02;;;2.10;84.00;;;;;;4994647;29;20049;-81
2020/12/13 00:42:28;;;;;;;13.30;12.40;;;2.10;84.20;;;;;;4975297;29;20058;-81
2020/12/13 00:44:59;;;;;;;13.13;12.10;;;2.00;84.60;;;;;;4976585;29;20046;-81
2020/12/13 00:47:32;;;;;;;13.35;12.45;;;2.10;84.50;;;;;;4993077;29;20085;-81
2020/12/13 00:50:05;;;;;;;13.20;12.20;;;2.10;84.20;;;;;;4992511;29;20053;-80
2020/12/13 00:52:40;;;;;;;13.13;12.23;;;2.00;84.20;;;;;;4993957;29;20050;-81
2020/12/13 00:55:12;;;;;;;12.85;11.95;;;2.10;84.50;;;;;;4992924;29;20126;-81
2020/12/13 00:57:43;;;;;;;13.70;12.80;;;2.10;84.30;;;;;;4993813;29;20540;-80
2020/12/13 01:00:15;;;;;;;14.30;13.20;;;2.20;84.20;;;;;;4991828;29;20050;-80
2020/12/13 01:02:47;;;;;;;13.68;12.75;;;2.20;83.90;;;;;;4993564;29;20053;-81
2020/12/13 01:05:19;;;;;;;14.05;12.93;;;2.20;83.60;;;;;;4989379;29;20046;-80
2020/12/13 01:07:51;;;;;;;13.52;12.45;;;2.20;83.40;;;;;;4994606;29;20065;-81
2020/12/13 01:10:23;;;;;;;13.57;12.60;;;2.20;83.30;;;;;;4991950;29;20058;-80
2020/12/13 01:12:55;;;;;;;13.35;12.43;;;2.20;83.60;;;;;;4996031;29;20045;-80
2020/12/13 01:15:27;;;;;;;13.48;12.50;;;2.20;83.60;;;;;;4990914;29;20053;-81
2020/12/13 01:17:58;;;;;;;12.95;12.05;;;2.20;83.90;;;;;;4993782;29;20106;-80
2020/12/13 01:20:29;;;;;;;13.43;12.43;;;2.20;83.90;;;;;;4993025;29;20049;-80
2020/12/13 01:23:01;;;;;;;13.23;12.32;;;2.20;83.80;;;;;;4992064;29;20517;-80
2020/12/13 01:25:33;;;;;;;13.23;12.23;;;2.20;83.60;;;;;;4990419;29;20061;-80
2020/12/13 01:28:04;;;;;;;13.68;12.68;;;2.20;83.50;;;;;;4989335;29;20772;-81
2020/12/13 01:30:35;;;;;;;13.30;12.40;;;2.30;83.40;;;;;;4991700;29;20062;-80
2020/12/13 01:33:07;;;;;;;13.55;12.65;;;2.20;83.30;;;;;;4991615;29;20049;-81
2020/12/13 01:35:39;;;;;;;13.20;12.30;;;2.30;83.30;;;;;;4989691;29;20459;-80
2020/12/13 01:38:11;;;;;;;13.10;12.20;;;2.30;83.30;;;;;;4991443;29;20039;-80
2020/12/13 01:40:42;;;;;;;13.65;12.65;;;2.30;83.60;;;;;;4987422;29;20039;-80
2020/12/13 01:43:14;;;;;;;13.60;12.65;;;2.30;83.50;;;;;;4992134;29;21361;-81
2020/12/13 01:45:45;;;;;;;13.10;12.20;;;2.30;83.40;;;;;;4993816;29;20079;-80
2020/12/13 01:48:17;;;;;;;12.80;11.90;;;2.30;83.60;;;;;;4988797;29;20054;-81
2020/12/13 01:53:27;;;;;;;14.50;13.40;;;2.30;83.90;;;;;;4987890;29;20684;-81
2020/12/13 01:56:01;;;;;;;13.50;12.60;;;2.30;83.90;;;;;;4968215;29;20478;-82
2020/12/13 01:58:37;;;;;;;13.80;12.70;;;2.30;83.70;;;;;;4988625;29;20057;-82
2020/12/13 02:01:09;;;;;;;13.52;12.52;;;2.30;83.50;;;;;;4989259;29;20175;-79
2020/12/13 02:03:51;;;;;;;13.20;12.30;;;2.30;83.50;;;;;;4985732;29;20039;-82
2020/12/13 02:06:26;;;;;;;13.40;12.50;;;2.30;83.60;;;;;;4985954;29;20081;-82
2020/12/13 02:08:58;;;;;;;13.13;12.13;;;2.40;83.40;;;;;;4981639;29;20070;-81
2020/12/13 02:11:31;;;;;;;13.30;12.40;;;2.30;83.40;;;;;;4950093;29;20047;-79
2020/12/13 02:14:04;;;;;;;13.02;12.13;;;2.40;83.30;;;;;;4993705;29;20051;-81
2020/12/13 02:16:36;;;;;;;14.20;13.10;;;2.30;83.50;;;;;;4993810;29;20047;-80
2020/12/13 02:19:08;;;;;;;13.40;12.30;;;2.30;83.30;;;;;;4993830;29;20453;-82
2020/12/13 02:21:51;;;;;;;13.43;12.43;;;2.40;83.20;;;;;;4991578;29;20556;-82
2020/12/13 02:24:22;;;;;;;14.00;12.88;;;2.30;83.30;;;;;;4986766;29;20061;-82
2020/12/13 02:26:54;;;;;;;13.20;12.30;;;2.30;83.10;;;;;;4990251;29;20081;-82
2020/12/13 02:29:26;;;;;;;13.25;12.25;;;2.30;83.30;;;;;;4987345;29;20042;-82
2020/12/13 02:31:57;;;;;;;13.20;12.18;;;2.30;83.30;;;;;;4983917;29;20046;-82
2020/12/13 02:34:29;;;;;;;13.27;12.35;;;2.30;84.10;;;;;;4989122;29;20409;-82
2020/12/13 02:37:00;;;;;;;13.63;12.63;;;2.30;83.30;;;;;;4989613;29;20537;-83
2020/12/13 02:39:32;;;;;;;13.25;12.25;;;2.30;83.40;;;;;;4983948;29;20067;-82
2020/12/13 02:42:04;;;;;;;13.13;12.20;;;2.30;83.60;;;;;;4987735;29;20058;-82
2020/12/13 02:44:36;;;;;;;12.90;12.00;;;2.30;83.40;;;;;;4990439;29;20055;-82
2020/12/13 02:47:07;;;;;;;13.00;12.10;;;2.40;83.40;;;;;;4989056;29;20053;-82
2020/12/13 02:49:41;;;;;;;13.00;12.10;;;2.30;83.50;;;;;;4989276;29;20046;-82
2020/12/13 02:52:17;;;;;;;13.27;12.27;;;2.30;83.80;;;;;;4990619;29;20061;-82
2020/12/13 02:54:49;;;;;;;13.48;12.48;;;2.30;83.60;;;;;;4984702;29;20593;-82
2020/12/13 02:57:23;;;;;;;13.70;12.70;;;2.40;83.40;;;;;;4985381;29;20223;-81
2020/12/13 02:59:56;;;;;;;13.85;12.85;;;2.30;83.90;;;;;;4985260;29;20139;-80
2020/12/13 03:02:27;;;;;;;13.60;12.70;;;2.40;83.80;;;;;;4990005;29;20058;-80
2020/12/13 03:04:58;;;;;;;14.23;13.23;;;2.40;83.50;;;;;;4985330;29;20078;-80
2020/12/13 03:07:30;;;;;;;13.98;12.93;;;2.40;83.50;;;;;;4983850;29;20054;-80
2020/12/13 03:10:02;;;;;;;12.73;11.82;;;2.40;83.40;;;;;;4990147;29;20049;-80
2020/12/13 03:12:33;;;;;;;13.05;12.15;;;2.40;83.40;;;;;;4985330;29;20517;-81
2020/12/13 03:15:04;;;;;;;13.50;12.30;;;2.40;83.50;;;;;;4989840;29;20106;-81
2020/12/13 03:17:36;;;;;;;13.38;12.45;;;2.40;83.30;;;;;;4985055;29;20047;-81
2020/12/13 03:20:09;;;;;;;12.98;12.07;;;2.40;83.20;;;;;;4986383;29;20079;-82
2020/12/13 03:22:40;;;;;;;13.60;12.50;;;2.40;83.30;;;;;;4986478;29;20053;-81
2020/12/13 03:25:12;;;;;;;13.38;12.48;;;2.40;83.30;;;;;;4972072;29;20046;-81
2020/12/13 03:27:43;;;;;;;14.05;12.95;;;2.40;83.40;;;;;;4985603;29;20100;-80
2020/12/13 03:30:15;;;;;;;13.30;12.40;;;2.40;83.30;;;;;;4988072;29;20051;-82
2020/12/13 03:32:46;;;;;;;13.48;12.48;;;2.40;83.30;;;;;;4969209;29;20100;-82
2020/12/13 03:35:18;;;;;;;13.93;12.93;;;2.40;83.20;;;;;;4987145;29;20099;-81
2020/12/13 03:37:50;;;;;;;13.82;12.82;;;2.40;83.50;;;;;;4985485;29;20043;-80
2020/12/13 03:40:22;;;;;;;13.32;12.35;;;2.40;83.10;;;;;;4971629;29;20047;-80
2020/12/13 03:42:54;;;;;;;13.20;12.30;;;2.40;83.10;;;;;;4971637;29;20078;-81
2020/12/13 03:45:25;;;;;;;14.10;13.10;;;2.40;84.10;;;;;;4967576;29;20062;-82
2020/12/13 03:47:57;;;;;;;13.50;12.50;;;2.40;83.50;;;;;;4943518;29;20054;-81
2020/12/13 03:50:38;;;;;;;13.43;12.43;;;2.30;83.70;;;;;;4966070;29;20055;-79
2020/12/13 03:53:12;;;;;;;13.45;12.35;;;2.30;83.80;;;;;;4970480;29;20156;-81
2020/12/13 03:55:43;;;;;;;13.65;12.75;;;2.30;84.30;;;;;;4961243;29;20064;-82
2020/12/13 03:58:16;;;;;;;13.40;12.50;;;2.30;84.10;;;;;;4979703;29;20046;-83
2020/12/13 04:00:49;;;;;;;13.90;12.90;;;2.30;83.90;;;;;;4979097;29;20042;-82
2020/12/13 04:03:21;;;;;;;13.27;12.27;;;2.30;84.10;;;;;;4979751;29;20046;-82
2020/12/13 04:05:52;;;;;;;13.88;12.88;;;2.30;84.00;;;;;;4982173;29;20521;-81
2020/12/13 04:08:24;;;;;;;13.77;12.80;;;2.30;83.70;;;;;;4981595;29;20054;-83
2020/12/13 04:10:56;;;;;;;13.00;12.10;;;2.30;83.60;;;;;;4967222;29;20054;-82
2020/12/13 04:13:28;;;;;;;13.75;12.65;;;2.40;83.70;;;;;;4983763;29;20136;-83
2020/12/13 04:15:59;;;;;;;13.82;12.82;;;2.40;83.50;;;;;;4962023;29;20058;-83
2020/12/13 04:18:31;;;;;;;14.20;13.20;;;2.40;83.50;;;;;;4985414;29;20056;-82
2020/12/13 04:21:04;;;;;;;13.40;12.40;;;2.40;83.60;;;;;;4983505;29;20057;-83
2020/12/13 04:23:35;;;;;;;13.77;12.80;;;2.40;83.60;;;;;;4970061;29;20834;-82
2020/12/13 04:26:07;;;;;;;13.65;12.55;;;2.40;83.40;;;;;;4979908;29;20057;-81
2020/12/13 04:28:38;;;;;;;13.88;12.88;;;2.40;83.30;;;;;;4984190;29;20509;-81
2020/12/13 04:31:09;;;;;;;13.30;12.40;;;2.40;83.10;;;;;;4982272;29;20049;-80
2020/12/13 04:33:41;;;;;;;13.50;12.60;;;2.40;83.10;;;;;;4968014;29;20395;-82
2020/12/13 04:36:12;;;;;;;13.38;12.38;;;2.40;83.60;;;;;;4969199;29;20501;-81
2020/12/13 04:38:44;;;;;;;13.70;12.57;;;2.40;83.40;;;;;;4947691;29;20070;-82
2020/12/13 04:41:15;;;;;;;13.30;12.40;;;2.40;83.50;;;;;;4978560;29;20518;-80
2020/12/13 04:43:47;;;;;;;13.68;12.65;;;2.40;83.60;;;;;;4983287;29;20054;-82
2020/12/13 04:46:21;;;;;;;13.43;12.52;;;2.30;83.70;;;;;;4980413;29;20521;-82
2020/12/13 04:48:54;;;;;;;13.57;12.68;;;2.40;83.80;;;;;;4982989;29;20062;-81
2020/12/13 04:51:27;;;;;;;14.02;13.13;;;2.40;83.70;;;;;;4972992;29;20074;-81
2020/12/13 04:54:05;;;;;;;13.90;12.98;;;2.40;83.90;;;;;;4986040;29;20046;-81
2020/12/13 04:56:37;;;;;;;13.80;12.90;;;2.30;84.40;;;;;;4985991;29;20051;-81
2020/12/13 04:59:08;;;;;;;13.50;12.50;;;2.30;84.60;;;;;;4974062;29;20090;-80
2020/12/13 05:01:40;;;;;;;13.82;12.93;;;2.30;84.70;;;;;;4975922;29;20047;-81
2020/12/13 05:04:13;;;;;;;14.02;13.02;;;2.30;84.60;;;;;;4984521;29;20043;-81
2020/12/13 05:06:45;;;;;;;13.88;12.90;;;2.30;84.50;;;;;;4973078;29;20598;-81
2020/12/13 05:09:18;;;;;;;13.40;12.50;;;2.30;84.40;;;;;;4972909;29;20050;-81
2020/12/13 05:11:50;;;;;;;14.00;13.10;;;2.30;84.20;;;;;;4986571;29;20069;-81
2020/12/13 05:14:21;;;;;;;13.80;12.90;;;2.40;84.30;;;;;;4975788;29;20046;-80
2020/12/13 05:17:07;;;;;;;13.68;12.77;;;2.30;84.40;;;;;;4974955;29;20103;-81
2020/12/13 05:19:41;;;;;;;13.85;12.95;;;2.40;85.10;;;;;;4985654;29;20768;-78
2020/12/13 05:22:12;;;;;;;13.50;12.60;;;2.30;84.50;;;;;;4990240;29;20058;-80
2020/12/13 05:24:43;;;;;;;13.63;12.63;;;2.30;84.50;;;;;;4985379;29;20509;-80
2020/12/13 05:27:25;;;;;;;13.65;12.75;;;2.30;84.70;;;;;;4984396;29;20129;-79
2020/12/13 05:30:00;;;;;;;14.00;13.10;;;2.30;85.00;;;;;;4999073;29;20509;-80
2020/12/13 05:32:32;;;;;;;14.43;13.43;;;2.30;85.00;;;;;;4988824;29;20062;-79
2020/12/13 05:35:04;;;;;;;13.88;12.88;;;2.30;85.10;;;;;;4986210;29;20119;-80
2020/12/13 05:37:36;;;;;;;13.60;12.70;;;2.30;85.20;;;;;;4985561;29;20107;-79
2020/12/13 05:40:07;;;;;;;14.52;13.43;;;2.40;84.70;;;;;;4984413;29;20073;-78
2020/12/13 05:42:41;;;;;;;13.52;12.63;;;2.40;84.20;;;;;;4982875;29;20053;-79
2020/12/13 05:48:15;;;;;;;13.52;12.63;;;2.40;84.40;;;;;;4985165;29;20054;-80
2020/12/13 05:53:57;;;;;;;13.30;12.40;;;2.40;84.40;;;;;;4953236;29;20062;-79
2020/12/13 05:56:29;;;;;;;13.88;12.98;;;2.40;84.20;;;;;;4980274;29;20054;-80
2020/12/13 05:59:01;;;;;;;13.48;12.57;;;2.40;84.40;;;;;;4973688;29;20149;-80
2020/12/13 06:01:36;;;;;;;13.68;12.68;;;2.40;84.30;;;;;;4984775;29;20043;-79
2020/12/13 06:04:13;;;;;;;13.85;12.95;;;2.40;84.30;;;;;;4967843;29;20050;-78
2020/12/13 06:06:45;;;;;;;13.90;12.90;;;2.40;84.10;;;;;;4984128;29;20687;-80
2020/12/13 06:09:18;;;;;;;13.80;12.80;;;2.40;83.80;;;;;;4984564;29;20732;-80
2020/12/13 06:11:50;;;;;;;14.35;13.00;;;2.50;83.80;;;;;;4983427;29;20772;-79
2020/12/13 06:14:22;;;;;;;13.70;12.70;;;2.50;84.00;;;;;;4990564;29;20050;-78
2020/12/13 06:16:56;;;;;;;14.25;13.25;;;2.40;84.10;;;;;;4984615;29;20062;-79
2020/12/13 06:19:32;;;;;;;14.32;13.32;;;2.40;85.20;;;;;;4983907;29;20054;-80
2020/12/13 06:22:04;;;;;;;15.10;13.98;;;2.40;84.60;;;;;;4982093;29;20521;-80
2020/12/13 06:24:35;;;;;;;14.23;13.10;;;2.40;84.90;;;;;;4984376;29;20162;-81
2020/12/13 06:27:07;;;;;;;15.07;14.07;;;2.30;84.90;;;;;;4983962;29;20051;-82
2020/12/13 06:29:41;;;;;;;14.98;13.98;;;2.30;84.90;;;;;;4985662;29;20055;-81
2020/12/13 06:32:13;;;;;;;13.95;12.95;;;2.30;85.00;;;;;;4984911;29;20541;-81
2020/12/13 06:34:45;;;;;;;14.00;13.07;;;2.40;85.00;;;;;;4983723;29;20105;-82
2020/12/13 06:37:17;;;;;;;13.93;13.00;;;2.30;85.30;;;;;;4984866;29;20483;-82
2020/12/13 06:39:49;;;;;;;17.13;15.55;;;2.40;85.20;;;;;;4985682;29;20042;-81
2020/12/13 06:42:27;;;;;;;19.83;17.83;;;2.30;85.20;;;;;;4982957;29;20086;-81
2020/12/13 06:45:11;;;;;;;16.85;15.35;;;2.40;84.90;;;;;;4989568;29;20494;-80
2020/12/13 06:47:45;;;;;;;16.85;15.45;;;2.30;84.80;;;;;;4984271;29;20062;-81
2020/12/13 06:50:24;;;;;;;14.35;13.35;;;2.40;84.70;;;;;;4982889;29;20042;-82
2020/12/13 06:52:55;;;;;;;14.90;13.80;;;2.40;84.40;;;;;;4984842;29;20374;-82
2020/12/13 06:55:31;;;;;;;15.35;14.15;;;2.50;84.20;;;;;;4984366;29;20060;-82
2020/12/13 06:58:04;;;;;;;17.80;16.15;;;2.50;84.30;;;;;;4979258;29;20063;-81
2020/12/13 07:00:49;;;;;;;15.55;14.20;;;2.40;84.30;;;;;;4983396;29;20054;-81
2020/12/13 07:03:27;;;;;;;16.48;14.98;;;2.50;84.30;;;;;;4981597;29;20061;-81
2020/12/13 07:06:00;;;;;;;14.98;13.77;;;2.50;84.00;;;;;;4982409;29;20547;-81
2020/12/13 07:08:33;;;;;;;14.30;13.10;;;2.50;83.80;;;;;;4983875;29;20054;-81
2020/12/13 07:11:05;;;;;;;14.75;13.70;;;2.50;83.70;;;;;;4953794;29;20054;-82
2020/12/13 07:13:37;;;;;;;13.95;12.85;;;2.50;83.60;;;;;;4985253;29;20060;-82
2020/12/13 07:16:23;;;;;;;13.45;12.35;;;2.50;83.60;;;;;;4983506;29;20053;-81
2020/12/13 07:19:07;;;;;;;13.10;12.10;;;2.50;83.60;;;;;;4984374;29;20046;-81
2020/12/13 07:21:40;;;;;;;13.93;12.82;;;2.50;83.60;;;;;;4981844;29;20097;-81
2020/12/13 07:24:12;;;;;;;15.07;13.77;;;2.50;83.90;;;;;;4983328;29;20535;-82
2020/12/13 07:26:45;;;;;;;13.85;12.75;;;2.50;84.10;;;;;;4982673;29;20058;-82
2020/12/13 07:29:19;;;;;;;13.45;12.27;;;2.50;83.90;;;;;;4981682;29;20055;-81
2020/12/13 07:31:52;;;;;;;13.48;12.48;;;2.50;83.90;;;;;;4980215;29;20046;-81
2020/12/13 07:34:24;;;;;;;12.43;11.45;;;2.50;83.80;;;;;;4981750;29;20053;-81
2020/12/13 07:36:58;;;;;;;12.70;11.80;;;2.50;83.80;;;;;;4980514;29;20049;-79
2020/12/13 07:39:31;;;;;;;12.38;11.48;;;2.50;84.20;;;;;;4973106;29;20051;-81
2020/12/13 07:42:07;;;;;;;12.73;11.73;;;2.50;84.10;;;;;;4979026;29;20544;-81
2020/12/13 07:44:41;;;;;;;14.00;12.82;;;2.50;84.20;;;;;;4983595;29;20138;-80
2020/12/13 07:47:20;;;;;;;13.18;12.18;;;2.50;84.30;;;;;;4976449;29;20089;-83
2020/12/13 07:49:52;;;;;;;14.40;13.30;;;2.50;84.50;;;;;;4984171;29;20125;-82
2020/12/13 07:52:23;;;;;;;14.27;13.07;;;2.50;84.60;;;;;;4983781;29;20686;-80
2020/12/13 07:55:06;;;;;;;14.27;13.18;;;2.50;84.40;;;;;;4983980;29;20188;-80
2020/12/13 07:57:38;;;;;;;14.65;13.45;;;2.60;84.10;;;;;;4983333;29;20073;-81
2020/12/13 08:00:09;;;;;;;13.30;12.30;;;2.60;83.90;;;;;;4981419;29;20054;-81
2020/12/13 08:02:44;;;;;;;12.70;11.80;;;2.60;84.10;;;;;;4983046;29;20532;-82
2020/12/13 08:05:24;;;;;;;13.88;12.88;;;2.60;84.10;;;;;;4977135;29;20057;-81
2020/12/13 08:08:00;;;;;;;16.00;14.70;;;2.60;84.00;;;;;;4982173;29;20049;-82
2020/12/13 08:10:32;;;;;;;13.75;12.55;;;2.70;84.20;;;;;;4981610;29;20058;-81
2020/12/13 08:13:07;;;;;;;14.15;13.02;;;2.70;84.00;;;;;;4982385;29;20102;-81
2020/12/13 08:15:39;;;;;;;14.15;12.93;;;2.80;83.90;;;;;;4983353;29;20050;-79
2020/12/13 08:18:15;;;;;;;14.30;13.20;;;2.80;83.70;;;;;;4967434;29;20697;-81
2020/12/13 08:20:49;;;;;;;14.90;13.65;;;2.80;83.50;;;;;;4982771;29;20050;-81
2020/12/13 08:23:23;;;;;;;14.80;13.60;;;2.80;84.00;;;;;;4987444;29;20054;-82
2020/12/13 08:25:55;;;;;;;14.60;13.43;;;2.80;84.10;;;;;;4992427;29;20061;-81
2020/12/13 08:28:27;;;;;;;14.43;13.32;;;2.80;84.30;;;;;;4973570;29;20426;-79
2020/12/13 08:31:00;;;;;;;14.07;12.98;;;2.80;84.10;;;;;;4979719;29;20121;-79
2020/12/13 08:33:32;;;;;;;15.00;13.75;;;2.90;84.00;;;;;;4983919;29;20106;-78
2020/12/13 08:36:20;;;;;;;19.30;17.50;;;2.90;84.10;;;;;;4985579;29;20123;-79
2020/12/13 08:39:05;;;;;;;20.95;18.95;;;2.90;83.90;;;;;;4987422;29;20054;-79
2020/12/13 08:41:46;;;;;;;19.48;17.70;;;3.00;83.90;;;;;;4985868;29;20050;-78
2020/12/13 08:44:40;;;;;;;18.05;16.45;;;3.00;83.80;;;;;;4987118;29;20443;-80
2020/12/13 08:47:12;;;;;;;19.77;17.98;;;3.10;83.70;;;;;;4981069;29;20543;-78
2020/12/13 08:49:50;;;;;;;20.58;18.52;;;3.10;83.80;;;;;;4988373;29;20413;-80
2020/12/13 08:52:23;;;;;;;21.55;19.55;;;3.10;83.70;;;;;;4977473;29;20050;-78
2020/12/13 08:55:25;;;;;;;19.50;17.80;;;3.20;83.70;;;;;;4992193;29;20077;-82
2020/12/13 08:58:00;;;;;;;20.48;18.58;;;3.10;83.40;;;;;;4988457;29;20048;-78
2020/12/13 09:00:32;;;;;;;20.13;18.23;;;3.20;83.60;;;;;;4993053;29;20086;-79
2020/12/13 09:03:04;;;;;;;20.45;18.65;;;3.20;83.50;;;;;;4986067;29;20489;-80
2020/12/13 09:05:35;;;;;;;18.63;17.02;;;3.20;83.40;;;;;;4987526;29;20050;-78
2020/12/13 09:08:08;;;;;;;17.55;15.93;;;3.20;83.50;;;;;;4990434;29;20046;-78
2020/12/13 09:10:42;;;;;;;18.52;16.60;;;3.20;83.70;;;;;;4984436;29;20054;-78
2020/12/13 09:13:14;;;;;;;16.52;15.23;;;3.20;83.70;;;;;;4986709;29;20118;-78
2020/12/13 09:15:45;;;;;;;16.05;14.75;;;3.20;83.70;;;;;;4985701;29;20047;-78
2020/12/13 09:18:17;;;;;;;16.20;14.90;;;3.20;83.80;;;;;;4988309;29;20057;-79
2020/12/13 09:20:59;;;;;;;15.90;14.60;;;3.10;83.80;;;;;;4986774;29;20046;-78
2020/12/13 09:23:31;;;;;;;14.35;13.15;;;3.20;83.90;;;;;;4976294;29;20139;-77
2020/12/13 09:26:03;;;;;;;13.27;12.27;;;3.20;84.00;;;;;;4985852;29;20517;-78
2020/12/13 09:28:34;;;;;;;12.23;11.32;;;3.20;83.90;;;;;;4993027;29;20054;-79
2020/12/13 09:31:08;;;;;;;12.27;11.38;;;3.20;84.10;;;;;;4990713;29;20532;-79
2020/12/13 09:33:40;;;;;;;12.30;11.40;;;3.30;84.20;;;;;;4980400;29;20058;-79
2020/12/13 09:36:15;;;;;;;13.05;12.05;;;3.30;84.20;;;;;;4984539;29;20808;-78
2020/12/13 09:38:46;;;;;;;13.00;12.00;;;3.40;84.40;;;;;;4987320;29;20073;-78
2020/12/13 09:41:19;;;;;;;13.57;12.50;;;3.40;84.20;;;;;;4986529;29;20525;-78
2020/12/13 09:43:51;;;;;;;13.20;12.20;;;3.50;85.20;;;;;;4984500;29;20054;-80
2020/12/13 09:46:22;;;;;;;16.58;15.18;;;3.50;84.70;;;;;;4980532;29;20137;-79
2020/12/13 09:48:54;;;;;;;17.70;16.15;;;3.60;84.50;;;;;;4985260;29;20058;-79
2020/12/13 09:51:26;;;;;;;18.35;16.70;;;3.70;84.00;;;;;;4983786;29;20054;-79
2020/12/13 09:53:57;;;;;;;19.83;18.13;;;3.70;83.70;;;;;;4984081;29;20042;-80
2020/12/13 09:56:28;;;;;;;19.02;17.30;;;3.70;83.70;;;;;;4982842;29;20058;-79
2020/12/13 09:59:00;;;;;;;18.08;16.58;;;3.80;83.20;;;;;;4967770;29;20141;-79
2020/12/13 10:01:32;;;;;;;18.70;17.10;;;3.80;83.00;;;;;;4982902;29;20051;-79
2020/12/13 10:04:03;;;;;;;17.15;15.55;;;3.70;83.00;;;;;;4984839;29;20047;-80
2020/12/13 10:09:16;;;;;;;16.35;14.95;;;3.80;83.10;;;;;;4989380;29;20065;-78
2020/12/13 10:11:48;;;;;;;15.70;14.38;;;3.80;83.70;;;;;;4973127;29;20050;-78
2020/12/13 10:14:21;;;;;;;16.00;14.60;;;3.80;82.80;;;;;;4960868;29;20062;-78
2020/12/13 10:16:54;;;;;;;15.38;14.18;;;3.80;82.90;;;;;;4969855;29;20043;-78
2020/12/13 10:19:26;;;;;;;15.60;14.40;;;3.90;83.20;;;;;;4984811;29;20888;-78
2020/12/13 10:21:57;;;;;;;15.48;14.25;;;3.90;83.20;;;;;;4984723;29;20115;-78
2020/12/13 10:24:29;;;;;;;16.05;14.75;;;3.90;83.30;;;;;;4984482;29;20468;-79
2020/12/13 10:27:00;;;;;;;15.63;14.25;;;4.00;83.70;;;;;;4961406;29;20050;-78
2020/12/13 10:29:32;;;;;;;15.70;14.50;;;4.00;83.00;;;;;;4983575;29;20505;-78
2020/12/13 10:32:03;;;;;;;15.07;13.77;;;4.00;83.00;;;;;;4982027;29;20050;-78
2020/12/13 10:34:35;;;;;;;14.35;13.18;;;4.00;82.40;;;;;;4984212;29;20800;-78
2020/12/13 10:37:06;;;;;;;16.00;14.70;;;4.10;82.70;;;;;;4965302;29;20118;-78
2020/12/13 10:39:41;;;;;;;15.00;13.82;;;4.10;82.50;;;;;;4982320;29;20101;-78
2020/12/13 10:42:12;;;;;;;15.30;14.10;;;4.10;82.40;;;;;;4982367;29;20058;-77
2020/12/13 10:44:44;;;;;;;14.55;13.35;;;4.10;82.50;;;;;;4982527;29;20057;-79
2020/12/13 10:47:15;;;;;;;13.70;12.70;;;4.10;82.30;;;;;;4982752;29;20156;-78
2020/12/13 10:49:47;;;;;;;15.05;13.85;;;4.10;82.00;;;;;;4971447;29;20043;-78
2020/12/13 10:52:18;;;;;;;14.45;13.35;;;4.10;82.40;;;;;;4984828;29;20501;-79
2020/12/13 10:54:50;;;;;;;14.20;13.10;;;4.10;82.40;;;;;;4984413;29;20050;-78
2020/12/13 10:57:25;;;;;;;14.13;13.02;;;4.20;82.40;;;;;;4982519;29;20586;-77
2020/12/13 10:59:56;;;;;;;15.35;14.15;;;4.20;82.30;;;;;;4984399;29;20054;-79
2020/12/13 11:02:29;;;;;;;14.25;13.25;;;4.20;82.30;;;;;;4983416;29;20072;-78
2020/12/13 11:05:00;;;;;;;13.25;12.25;;;4.30;82.20;;;;;;4983047;29;20053;-78
2020/12/13 11:07:32;;;;;;;14.07;13.07;;;4.30;82.10;;;;;;4983452;29;20058;-76
2020/12/13 11:10:03;;;;;;;14.35;13.25;;;4.30;82.10;;;;;;4984568;29;20054;-78
2020/12/13 11:12:35;;;;;;;13.73;12.70;;;4.30;82.00;;;;;;4985112;29;20047;-78
2020/12/13 11:15:07;;;;;;;14.73;13.63;;;4.40;82.30;;;;;;4984292;29;20057;-79
2020/12/13 11:17:38;;;;;;;13.95;12.95;;;4.40;82.30;;;;;;4983418;29;20432;-79
2020/12/13 11:20:10;;;;;;;13.73;12.60;;;4.50;81.90;;;;;;4978435;29;20046;-79
2020/12/13 11:22:42;;;;;;;13.70;12.60;;;4.50;82.00;;;;;;4972789;29;20042;-79
2020/12/13 11:25:16;;;;;;;14.15;13.05;;;4.50;81.90;;;;;;4983692;29;20049;-78
2020/12/13 11:27:48;;;;;;;14.13;13.10;;;4.50;81.90;;;;;;4962959;29;20058;-79
2020/12/13 11:30:19;;;;;;;13.65;12.65;;;4.60;81.80;;;;;;4982408;29;20043;-78
2020/12/13 11:32:51;;;;;;;14.25;13.25;;;4.60;81.70;;;;;;4983494;29;20467;-78
2020/12/13 11:35:22;;;;;;;13.93;12.93;;;4.60;81.40;;;;;;4983067;29;20053;-79
2020/12/13 11:37:54;;;;;;;13.90;12.80;;;4.60;81.30;;;;;;4982147;29;20073;-77
2020/12/13 11:40:25;;;;;;;14.13;13.10;;;4.60;81.40;;;;;;4983049;29;20508;-78
2020/12/13 11:42:59;;;;;;;14.10;13.10;;;4.60;81.90;;;;;;4982580;29;20042;-77
2020/12/13 11:45:31;;;;;;;13.65;12.57;;;4.60;81.70;;;;;;4969294;29;20050;-78
2020/12/13 11:48:03;;;;;;;13.73;12.73;;;4.60;81.80;;;;;;4983042;29;20475;-78
2020/12/13 11:50:40;;;;;;;14.05;12.85;;;4.60;81.70;;;;;;4979562;29;20154;-78
2020/12/13 11:53:12;;;;;;;13.77;12.77;;;4.70;81.70;;;;;;4984029;29;20061;-77
2020/12/13 11:55:45;;;;;;;17.95;16.45;;;4.60;81.10;;;;;;4982148;29;20102;-77
2020/12/13 11:58:17;;;;;;;17.40;15.90;;;4.70;81.70;;;;;;4981590;29;20121;-77
2020/12/13 12:00:48;;;;;;;15.45;14.13;;;4.70;81.70;;;;;;4981598;29;20102;-77
2020/12/13 12:03:20;;;;;;;17.20;15.73;;;4.70;81.40;;;;;;4981096;29;20079;-77
2020/12/13 12:05:51;;;;;;;16.67;15.27;;;4.70;81.40;;;;;;4980241;29;20450;-77
2020/12/13 12:08:23;;;;;;;15.98;14.68;;;4.70;81.40;;;;;;4981982;29;20062;-78
2020/12/13 12:10:54;;;;;;;17.02;15.52;;;4.70;81.70;;;;;;4981208;29;20491;-78
2020/12/13 12:13:26;;;;;;;17.55;15.95;;;4.70;81.50;;;;;;4982299;29;20050;-77
2020/12/13 12:15:57;;;;;;;16.75;15.30;;;4.70;81.50;;;;;;4971131;29;20108;-77
2020/12/13 12:18:29;;;;;;;17.73;15.95;;;4.70;81.40;;;;;;4981217;29;20114;-78
2020/12/13 12:21:13;;;;;;;18.27;16.60;;;4.70;81.60;;;;;;4982657;29;20046;-77
2020/12/13 12:23:44;;;;;;;20.05;18.35;;;4.80;81.50;;;;;;4983629;29;20168;-77
2020/12/13 12:26:17;;;;;;;19.35;17.65;;;4.80;81.30;;;;;;4972812;29;20050;-79
2020/12/13 12:28:49;;;;;;;19.20;17.48;;;4.80;81.30;;;;;;4970831;29;20054;-76
2020/12/13 12:31:21;;;;;;;19.40;17.70;;;4.90;81.40;;;;;;4978921;29;20050;-77
2020/12/13 12:33:53;;;;;;;19.35;17.67;;;4.90;81.40;;;;;;4979745;29;20467;-77
2020/12/13 12:36:27;;;;;;;19.95;18.08;;;4.90;81.30;;;;;;4971045;29;20050;-76
2020/12/13 12:38:58;;;;;;;19.77;18.08;;;5.00;81.40;;;;;;4981899;29;20674;-76
2020/12/13 12:41:32;;;;;;;19.92;18.10;;;5.00;81.40;;;;;;4981790;29;20505;-77
2020/12/13 12:44:04;;;;;;;19.70;17.92;;;5.10;81.50;;;;;;4993261;29;20055;-76
2020/12/13 12:46:36;;;;;;;20.45;18.65;;;5.10;81.10;;;;;;4979431;29;20058;-77
2020/12/13 12:49:07;;;;;;;19.15;17.35;;;5.20;81.30;;;;;;4980460;29;20134;-76
2020/12/13 12:51:39;;;;;;;18.92;17.33;;;5.20;80.80;;;;;;4978866;29;20057;-79
2020/12/13 12:54:10;;;;;;;19.75;17.88;;;5.20;80.00;;;;;;4969946;29;20053;-77
2020/12/13 12:56:42;;;;;;;21.13;19.02;;;5.20;80.40;;;;;;4978511;29;20050;-79
2020/12/13 12:59:36;;;;;;;20.80;18.77;;;5.30;80.50;;;;;;4975382;29;20061;-75
2020/12/13 13:02:08;;;;;;;20.42;18.52;;;5.30;80.80;;;;;;4981237;29;20910;-79
2020/12/13 13:04:53;;;;;;;20.90;18.98;;;5.30;80.90;;;;;;4980154;29;20183;-78
2020/12/13 13:07:28;;;;;;;20.15;18.20;;;5.40;81.00;;;;;;4955527;29;20059;-78
2020/12/13 13:10:11;;;;;;;20.38;18.45;;;5.40;79.90;;;;;;4981302;29;20046;-78
2020/12/13 13:12:43;;;;;;;20.08;18.30;;;5.30;79.30;;;;;;4981205;29;20053;-78
2020/12/13 13:15:20;;;;;;;19.73;17.80;;;5.40;80.40;;;;;;4982086;29;20058;-78
2020/12/13 13:17:54;;;;;;;19.52;17.80;;;5.40;80.40;;;;;;4981459;29;20054;-78